Time;durP1;ratioP1;P1;durP2;ratioP2;P2;SDS_P1;SDS_P2;PMS_P1;PMS_P2;Temp;Humidity;BMP_temperature;BMP_pressure;BME280_temperature;BME280_humidity;BME280_pressure;Samples;Min_cycle;Max_cycle;Signal;HPM_P1;HPM_P2
2023/03/14 00:00:16;;;;;;;;;;;;;;;18.84;31.21;101236.34;103461;1312;61363;-81
2023/03/14 00:02:41;;;;;;;;;;;;;;;18.84;31.26;101239.91;103414;1312;72771;-81
2023/03/14 00:05:10;;;;;;;;;;;;;;;18.84;31.22;101231.36;103462;1311;61317;-81
2023/03/14 00:07:40;;;;;;;;;;;;;;;18.84;31.17;101229.41;103455;1312;61294;-81
2023/03/14 00:10:07;;;;;;;;;;;;;;;18.83;31.15;101219.63;103680;1311;61208;-81
2023/03/14 00:12:36;;;;;;;;;;;;;;;18.83;31.14;101218.04;103640;1312;72619;-81
2023/03/14 00:15:13;;;;;;;;;;;;;;;18.83;31.08;101213.92;103663;1311;74563;-80
2023/03/14 00:17:42;;;;;;;;;;;;;;;18.83;31.09;101212.88;103655;1310;62401;-81
2023/03/14 00:20:11;;;;;;;;;;;;;;;18.83;31.05;101213.92;103668;1314;61397;-80
2023/03/14 00:22:39;;;;;;;;;;;;;;;18.83;31.05;101213.40;103675;1312;72681;-81
2023/03/14 00:25:08;;;;;;;;;;;;;;;18.83;31.17;101213.07;103651;1312;75399;-81
2023/03/14 00:27:43;;;;;;;;;;;;;;;18.82;31.09;101218.08;103655;1311;61534;-81
2023/03/14 00:30:18;;;;;;;;;;;;;;;18.82;31.12;101211.14;103683;1311;61344;-81
2023/03/14 00:32:43;;;;;;;;;;;;;;;18.82;31.12;101210.77;103450;1315;73637;-82
2023/03/14 00:35:17;;;;;;;;;;;;;;;18.82;31.06;101206.86;103294;1315;75885;-82
2023/03/14 00:37:54;;;;;;;;;;;;;;;18.82;31.07;101201.89;103332;1314;61235;-82
2023/03/14 00:40:19;;;;;;;;;;;;;;;18.82;31.09;101196.72;103286;1314;61397;-81
2023/03/14 00:42:45;;;;;;;;;;;;;;;18.81;31.07;101193.34;103273;1311;61289;-81
2023/03/14 00:45:17;;;;;;;;;;;;;;;18.81;31.03;101195.68;103477;1313;75606;-81
2023/03/14 00:47:45;;;;;;;;;;;;;;;18.81;31.03;101196.91;103277;1313;61275;-82
2023/03/14 00:50:11;;;;;;;;;;;;;;;18.81;31.01;101191.41;103014;1314;61362;-81
2023/03/14 00:52:37;;;;;;;;;;;;;;;18.80;31.04;101187.86;103223;1311;61493;-81
2023/03/14 00:55:05;;;;;;;;;;;;;;;18.80;31.02;101185.73;103424;1317;75504;-81
2023/03/14 00:57:34;;;;;;;;;;;;;;;18.80;31.04;101181.86;103430;1314;61365;-81
2023/03/14 01:00:05;;;;;;;;;;;;;;;18.80;30.90;101180.77;103432;1311;61513;-81
2023/03/14 01:02:31;;;;;;;;;;;;;;;18.80;30.96;101177.94;103299;1311;73653;-81
2023/03/14 01:05:04;;;;;;;;;;;;;;;18.80;30.87;101174.55;103643;1308;75395;-81
2023/03/14 01:07:30;;;;;;;;;;;;;;;18.79;30.94;101177.77;103657;1309;61445;-82
2023/03/14 01:09:55;;;;;;;;;;;;;;;18.79;30.84;101176.36;103668;1308;61279;-82
2023/03/14 01:12:30;;;;;;;;;;;;;;;18.79;30.88;101173.67;103638;1314;73555;-81
2023/03/14 01:14:55;;;;;;;;;;;;;;;18.78;30.90;101171.06;103622;1308;61936;-81
2023/03/14 01:17:24;;;;;;;;;;;;;;;18.78;30.81;101168.02;103702;1308;61434;-81
2023/03/14 01:19:50;;;;;;;;;;;;;;;18.78;30.85;101162.86;103684;1308;61314;-81
2023/03/14 01:22:18;;;;;;;;;;;;;;;18.78;30.78;101158.78;103722;1308;61393;-82
2023/03/14 01:24:51;;;;;;;;;;;;;;;18.78;30.85;101156.46;103871;1314;74258;-81
2023/03/14 01:27:17;;;;;;;;;;;;;;;18.78;30.95;101154.85;103883;1308;61173;-81
2023/03/14 01:29:47;;;;;;;;;;;;;;;18.77;30.89;101149.73;103689;1308;61410;-81
2023/03/14 01:32:23;;;;;;;;;;;;;;;18.77;30.86;101149.01;103707;1308;71829;-81
2023/03/14 01:34:53;;;;;;;;;;;;;;;18.77;30.85;101149.90;103650;1308;75314;-81
2023/03/14 01:37:19;;;;;;;;;;;;;;;18.76;30.72;101152.95;103909;1308;61205;-80
2023/03/14 01:39:48;;;;;;;;;;;;;;;18.76;30.78;101153.50;103912;1308;61394;-81
2023/03/14 01:42:14;;;;;;;;;;;;;;;18.77;30.75;101149.73;103691;1310;73363;-81
2023/03/14 01:44:56;;;;;;;;;;;;;;;18.75;30.74;101150.52;103662;1308;61432;-81
2023/03/14 01:47:22;;;;;;;;;;;;;;;18.75;30.78;101148.35;103850;1308;61330;-82
2023/03/14 01:50:14;;;;;;;;;;;;;;;18.75;30.75;101148.39;103678;1308;61266;-82
2023/03/14 01:52:42;;;;;;;;;;;;;;;18.75;30.72;101146.77;103841;1308;72507;-82
2023/03/14 01:55:16;;;;;;;;;;;;;;;18.74;30.69;101145.20;103861;1308;75634;-82
2023/03/14 01:57:45;;;;;;;;;;;;;;;18.74;30.71;101144.33;103613;1309;61196;-82
2023/03/14 02:00:20;;;;;;;;;;;;;;;18.74;30.75;101141.86;103677;1309;61338;-82
2023/03/14 02:02:47;;;;;;;;;;;;;;;18.74;30.66;101140.09;103860;1308;72561;-81
2023/03/14 02:05:13;;;;;;;;;;;;;;;18.73;30.70;101136.02;103672;1308;75461;-82
2023/03/14 02:07:47;;;;;;;;;;;;;;;18.73;30.64;101131.35;103893;1309;61144;-82
2023/03/14 02:10:18;;;;;;;;;;;;;;;18.74;30.59;101130.30;103906;1308;61173;-81
2023/03/14 02:12:45;;;;;;;;;;;;;;;18.73;30.73;101128.55;103628;1308;72523;-81
2023/03/14 02:15:11;;;;;;;;;;;;;;;18.73;30.72;101128.19;103668;1308;75451;-82
2023/03/14 02:17:43;;;;;;;;;;;;;;;18.72;30.52;101126.95;103894;1308;61277;-81
2023/03/14 02:20:41;;;;;;;;;;;;;;;18.72;30.62;101127.50;103870;1308;61186;-81
2023/03/14 02:23:12;;;;;;;;;;;;;;;18.72;30.64;101131.80;103891;1309;73461;-81
2023/03/14 02:25:46;;;;;;;;;;;;;;;18.72;30.64;101134.86;103663;1309;74697;-82
2023/03/14 02:28:12;;;;;;;;;;;;;;;18.72;30.54;101133.41;103704;1309;61122;-80
2023/03/14 02:30:41;;;;;;;;;;;;;;;18.71;30.63;101129.89;103710;1308;61870;-80
2023/03/14 02:33:08;;;;;;;;;;;;;;;18.72;30.56;101130.23;103821;1308;72533;-81
2023/03/14 02:35:49;;;;;;;;;;;;;;;18.71;30.62;101136.14;103650;1309;75549;-81
2023/03/14 02:38:20;;;;;;;;;;;;;;;18.71;30.61;101138.99;103880;1308;61340;-81
2023/03/14 02:40:46;;;;;;;;;;;;;;;18.71;30.50;101140.23;103890;1308;61495;-81
2023/03/14 02:43:12;;;;;;;;;;;;;;;18.70;30.55;101136.19;103711;1308;61324;-82
2023/03/14 02:45:39;;;;;;;;;;;;;;;18.70;30.68;101137.08;103645;1309;61305;-81
2023/03/14 02:48:18;;;;;;;;;;;;;;;18.70;30.60;101137.27;103870;1308;61218;-81
2023/03/14 02:50:44;;;;;;;;;;;;;;;18.70;30.61;101138.19;103846;1309;61382;-81
2023/03/14 02:53:11;;;;;;;;;;;;;;;18.69;30.57;101137.33;103909;1308;61258;-81
2023/03/14 02:55:46;;;;;;;;;;;;;;;18.69;30.55;101138.75;103625;1314;75286;-82
2023/03/14 02:58:12;;;;;;;;;;;;;;;18.69;30.44;101140.71;103881;1308;61280;-82
2023/03/14 03:00:42;;;;;;;;;;;;;;;18.69;30.47;101144.48;103691;1308;61155;-81
2023/03/14 03:03:07;;;;;;;;;;;;;;;18.68;30.54;101143.27;103667;1308;73533;-81
2023/03/14 03:05:43;;;;;;;;;;;;;;;18.68;30.57;101141.67;103629;1308;74618;-80
2023/03/14 03:08:09;;;;;;;;;;;;;;;18.68;30.52;101142.75;103674;1308;61295;-81
2023/03/14 03:10:41;;;;;;;;;;;;;;;18.68;30.46;101141.51;103640;1308;61702;-82
2023/03/14 03:13:15;;;;;;;;;;;;;;;18.68;30.51;101140.41;103898;1308;73920;-81
2023/03/14 03:15:41;;;;;;;;;;;;;;;18.67;30.35;101137.80;103674;1314;74779;-82
2023/03/14 03:18:10;;;;;;;;;;;;;;;18.67;30.49;101134.60;103902;1308;61311;-82
2023/03/14 03:20:38;;;;;;;;;;;;;;;18.67;30.53;101131.23;103676;1308;61342;-82
2023/03/14 03:23:04;;;;;;;;;;;;;;;18.67;30.40;101129.80;103876;1308;72377;-81
2023/03/14 03:25:35;;;;;;;;;;;;;;;18.66;30.34;101130.00;103843;1308;75393;-81
2023/03/14 03:28:01;;;;;;;;;;;;;;;18.66;30.33;101125.39;103680;1308;61890;-81
2023/03/14 03:30:32;;;;;;;;;;;;;;;18.65;30.40;101114.54;103662;1308;61435;-81
2023/03/14 03:33:01;;;;;;;;;;;;;;;18.65;30.36;101114.36;103667;1309;72479;-81
2023/03/14 03:35:29;;;;;;;;;;;;;;;18.65;30.34;101106.55;103651;1308;74505;-82
2023/03/14 03:37:58;;;;;;;;;;;;;;;18.65;30.42;101100.83;103637;1308;61217;-82
2023/03/14 03:40:24;;;;;;;;;;;;;;;18.64;30.44;101099.45;103643;1308;61292;-81
2023/03/14 03:42:50;;;;;;;;;;;;;;;18.64;30.25;101099.80;103646;1308;72919;-81
2023/03/14 03:45:18;;;;;;;;;;;;;;;18.64;30.37;101101.61;103879;1308;75397;-82
2023/03/14 03:47:51;;;;;;;;;;;;;;;18.63;30.25;101097.70;103700;1308;61370;-81
2023/03/14 03:50:26;;;;;;;;;;;;;;;18.63;30.22;101091.49;103872;1308;61409;-81
2023/03/14 03:52:52;;;;;;;;;;;;;;;18.63;30.25;101096.65;103888;1308;61275;-81
2023/03/14 03:55:18;;;;;;;;;;;;;;;18.62;30.24;101095.81;103680;1308;61371;-82
2023/03/14 03:57:46;;;;;;;;;;;;;;;18.62;30.29;101093.51;103650;1308;61195;-81
2023/03/14 04:00:12;;;;;;;;;;;;;;;18.62;30.26;101090.64;103692;1309;61445;-81
2023/03/14 04:02:38;;;;;;;;;;;;;;;18.62;30.26;101087.30;103650;1311;61333;-81
2023/03/14 04:05:07;;;;;;;;;;;;;;;18.61;30.23;101087.31;103660;1309;61333;-82
2023/03/14 04:07:35;;;;;;;;;;;;;;;18.61;30.17;101086.09;103699;1308;60083;-81
2023/03/14 04:10:03;;;;;;;;;;;;;;;18.60;30.25;101087.54;103877;1308;61202;-82
2023/03/14 04:12:29;;;;;;;;;;;;;;;18.61;30.18;101089.10;103783;1308;61416;-82
2023/03/14 04:14:58;;;;;;;;;;;;;;;18.61;30.19;101088.95;103755;1309;61269;-80
2023/03/14 04:17:27;;;;;;;;;;;;;;;18.61;30.13;101088.08;103832;1308;61147;-81
2023/03/14 04:19:53;;;;;;;;;;;;;;;18.60;30.15;101088.60;103638;1309;61279;-81
2023/03/14 04:22:22;;;;;;;;;;;;;;;18.60;30.21;101088.63;103651;1314;72564;-82
2023/03/14 04:24:50;;;;;;;;;;;;;;;18.59;30.13;101089.02;103643;1309;75249;-81
2023/03/14 04:27:16;;;;;;;;;;;;;;;18.59;30.22;101089.55;103679;1309;61288;-81
2023/03/14 04:29:42;;;;;;;;;;;;;;;18.59;30.11;101087.59;103566;1312;61320;-79
2023/03/14 04:32:28;;;;;;;;;;;;;;;18.58;30.13;101090.33;103643;1312;72640;-80
2023/03/14 04:34:54;;;;;;;;;;;;;;;18.57;30.06;101087.88;103694;1308;61326;-80
2023/03/14 04:37:22;;;;;;;;;;;;;;;18.56;30.11;101090.27;103470;1309;61679;-80
2023/03/14 04:39:48;;;;;;;;;;;;;;;18.55;30.01;101084.98;103713;1308;61308;-79
2023/03/14 04:42:14;;;;;;;;;;;;;;;18.53;30.04;101085.80;103533;1312;61256;-81
2023/03/14 04:44:49;;;;;;;;;;;;;;;18.53;30.03;101088.84;103584;1309;74669;-81
2023/03/14 04:47:15;;;;;;;;;;;;;;;18.52;29.99;101088.70;103717;1311;61425;-81
2023/03/14 04:49:41;;;;;;;;;;;;;;;18.51;29.99;101092.49;103676;1308;61337;-82
2023/03/14 04:52:11;;;;;;;;;;;;;;;18.51;29.97;101092.48;103704;1311;61442;-82
2023/03/14 04:54:39;;;;;;;;;;;;;;;18.51;29.96;101091.44;103723;1309;74412;-80
2023/03/14 04:57:04;;;;;;;;;;;;;;;18.51;29.97;101091.10;103643;1308;61294;-80
2023/03/14 04:59:35;;;;;;;;;;;;;;;18.51;29.97;101087.72;103903;1309;61278;-82
2023/03/14 05:02:01;;;;;;;;;;;;;;;18.49;29.86;101089.02;103880;1310;71431;-82
2023/03/14 05:04:26;;;;;;;;;;;;;;;18.48;29.85;101095.02;103867;1308;61284;-82
2023/03/14 05:06:57;;;;;;;;;;;;;;;18.46;29.81;101093.86;103637;1308;61281;-82
2023/03/14 05:09:23;;;;;;;;;;;;;;;18.43;29.82;101097.22;103648;1311;61298;-82
2023/03/14 05:11:49;;;;;;;;;;;;;;;18.40;29.64;101093.23;103872;1311;61400;-82
2023/03/14 05:14:17;;;;;;;;;;;;;;;18.39;29.60;101086.54;103873;1312;61359;-82
2023/03/14 05:16:44;;;;;;;;;;;;;;;18.37;29.55;101085.77;103684;1308;61449;-82
2023/03/14 05:19:10;;;;;;;;;;;;;;;18.36;29.59;101086.54;103803;1313;61330;-82
2023/03/14 05:21:48;;;;;;;;;;;;;;;;;;;;;
2023/03/14 05:24:17;;;;;;;;;;;;;;;18.32;29.54;101082.71;103250;1309;75011;-82
2023/03/14 05:26:45;;;;;;;;;;;;;;;18.30;29.46;101076.42;103542;1309;61467;-82
2023/03/14 05:29:34;;;;;;;;;;;;;;;18.28;29.46;101072.95;103466;1309;61312;-82
2023/03/14 05:32:03;;;;;;;;;;;;;;;18.25;29.32;101079.67;102951;1317;72386;-82
2023/03/14 05:34:40;;;;;;;;;;;;;;;18.23;29.31;101083.31;102780;1317;75430;-82
2023/03/14 05:37:06;;;;;;;;;;;;;;;18.21;29.21;101084.70;102798;1316;61312;-82
2023/03/14 05:39:33;;;;;;;;;;;;;;;18.19;29.19;101082.48;102801;1317;61378;-82
2023/03/14 05:42:01;;;;;;;;;;;;;;;18.18;29.23;101088.09;102726;1315;61343;-83
2023/03/14 05:44:41;;;;;;;;;;;;;;;18.16;29.09;101087.46;102859;1315;74393;-83
2023/03/14 05:47:38;;;;;;;;;;;;;;;;;;;;;
2023/03/14 05:50:24;;;;;;;;;;;;;;;18.13;28.98;101088.17;102111;1323;61208;-81
2023/03/14 05:53:08;;;;;;;;;;;;;;;18.13;29.01;101089.23;102068;1323;61328;-82
2023/03/14 05:55:33;;;;;;;;;;;;;;;18.13;28.94;101088.02;101943;1324;75431;-82
2023/03/14 05:57:59;;;;;;;;;;;;;;;18.12;28.87;101086.09;101842;1323;61358;-82
2023/03/14 06:00:24;;;;;;;;;;;;;;;18.11;28.68;101081.16;101743;1323;61609;-81
2023/03/14 06:02:50;;;;;;;;;;;;;;;18.09;28.64;101079.99;101430;1323;61256;-81
2023/03/14 06:05:20;;;;;;;;;;;;;;;18.08;28.75;101080.92;101954;1323;61562;-81
2023/03/14 06:07:45;;;;;;;;;;;;;;;18.09;28.72;101081.41;101837;1323;61449;-81
2023/03/14 06:10:11;;;;;;;;;;;;;;;18.11;28.79;101073.50;102099;1317;61355;-81
2023/03/14 06:12:36;;;;;;;;;;;;;;;18.13;28.70;101073.60;102205;1317;61329;-81
2023/03/14 06:15:02;;;;;;;;;;;;;;;18.14;28.58;101074.95;102364;1318;61502;-81
2023/03/14 06:17:28;;;;;;;;;;;;;;;18.15;28.55;101072.77;102370;1316;61539;-80
2023/03/14 06:19:53;;;;;;;;;;;;;;;18.16;28.59;101071.24;102518;1318;61356;-80
2023/03/14 06:22:19;;;;;;;;;;;;;;;18.16;28.53;101071.08;102496;1317;61314;-80
2023/03/14 06:24:46;;;;;;;;;;;;;;;18.17;28.50;101075.65;102771;1308;61427;-81
2023/03/14 06:27:11;;;;;;;;;;;;;;;18.18;28.55;101075.64;103084;1308;61925;-82
2023/03/14 06:29:37;;;;;;;;;;;;;;;18.19;28.46;101076.46;103254;1308;61314;-81
2023/03/14 06:32:02;;;;;;;;;;;;;;;18.20;28.30;101082.25;103370;1308;61346;-81
2023/03/14 06:34:28;;;;;;;;;;;;;;;18.20;28.33;101078.30;103417;1309;61359;-82
2023/03/14 06:36:54;;;;;;;;;;;;;;;18.22;28.43;101073.27;103096;1309;73782;-81
2023/03/14 06:39:19;;;;;;;;;;;;;;;18.24;28.29;101071.52;103265;1313;61361;-81
2023/03/14 06:41:45;;;;;;;;;;;;;;;18.28;28.33;101066.14;103233;1308;61400;-82
2023/03/14 06:44:10;;;;;;;;;;;;;;;18.32;28.35;101062.75;103109;1309;61361;-81
2023/03/14 06:46:36;;;;;;;;;;;;;;;18.36;28.26;101060.19;103101;1308;61434;-80
2023/03/14 06:49:02;;;;;;;;;;;;;;;18.37;28.26;101057.29;103048;1311;72629;-81
2023/03/14 06:51:28;;;;;;;;;;;;;;;18.37;28.29;101055.66;102916;1309;61586;-81
2023/03/14 06:53:53;;;;;;;;;;;;;;;18.30;28.01;101054.99;102986;1309;61355;-81
2023/03/14 06:56:19;;;;;;;;;;;;;;;18.08;27.88;101056.40;103230;1311;61698;-81
2023/03/14 06:58:44;;;;;;;;;;;;;;;17.72;27.78;101055.24;102955;1308;61398;-81
2023/03/14 07:01:15;;;;;;;;;;;;;;;17.51;28.02;101049.57;102987;1308;61397;-81
2023/03/14 07:03:40;;;;;;;;;;;;;;;17.44;28.13;101047.98;101999;1308;1002201;-80
2023/03/14 07:06:07;;;;;;;;;;;;;;;17.36;27.96;101052.48;103065;1308;61415;-80
2023/03/14 07:08:33;;;;;;;;;;;;;;;17.36;28.15;101053.34;103024;1311;61336;-80
2023/03/14 07:10:58;;;;;;;;;;;;;;;17.45;28.20;101046.86;103259;1309;61266;-80
2023/03/14 07:13:24;;;;;;;;;;;;;;;17.55;28.24;101047.77;103137;1314;61533;-81
2023/03/14 07:15:49;;;;;;;;;;;;;;;17.64;28.17;101049.95;103228;1309;59393;-81
2023/03/14 07:18:15;;;;;;;;;;;;;;;17.73;28.11;101042.91;103382;1309;61371;-81
2023/03/14 07:20:41;;;;;;;;;;;;;;;17.82;27.99;101040.67;103097;1308;61364;-80
2023/03/14 07:23:06;;;;;;;;;;;;;;;17.86;27.97;101041.12;103108;1308;61307;-81
2023/03/14 07:25:32;;;;;;;;;;;;;;;17.93;28.03;101039.73;103163;1308;61355;-81
2023/03/14 07:27:58;;;;;;;;;;;;;;;17.99;27.95;101042.98;103199;1309;61343;-81
2023/03/14 07:30:23;;;;;;;;;;;;;;;18.03;27.99;101038.08;103125;1309;61260;-81
2023/03/14 07:32:49;;;;;;;;;;;;;;;18.08;27.85;101039.10;103213;1311;61352;-81
2023/03/14 07:35:14;;;;;;;;;;;;;;;18.11;27.87;101036.80;103210;1309;61438;-81
2023/03/14 07:37:40;;;;;;;;;;;;;;;18.15;27.86;101035.00;103617;1312;61298;-81
2023/03/14 07:40:07;;;;;;;;;;;;;;;18.17;27.76;101038.77;102858;1308;61382;-81
2023/03/14 07:42:35;;;;;;;;;;;;;;;18.20;27.73;101038.96;102973;1308;61278;-81
2023/03/14 07:45:02;;;;;;;;;;;;;;;18.23;27.65;101039.01;103022;1308;61284;-81
2023/03/14 07:47:29;;;;;;;;;;;;;;;18.26;27.58;101037.95;103026;1309;74373;-80
2023/03/14 07:49:54;;;;;;;;;;;;;;;18.29;27.58;101036.17;102864;1311;61157;-81
2023/03/14 07:52:20;;;;;;;;;;;;;;;18.32;27.51;101035.13;102601;1308;61343;-80
2023/03/14 07:54:46;;;;;;;;;;;;;;;18.34;27.45;101030.90;102812;1314;61324;-81
2023/03/14 07:57:11;;;;;;;;;;;;;;;18.30;27.39;101029.51;103093;1311;62756;-81
2023/03/14 07:59:37;;;;;;;;;;;;;;;18.26;27.53;101025.27;102830;1314;61403;-81
2023/03/14 08:02:05;;;;;;;;;;;;;;;18.25;27.62;101020.19;102729;1309;61236;-81
2023/03/14 08:04:32;;;;;;;;;;;;;;;18.26;27.63;101011.73;102941;1309;61429;-80
2023/03/14 08:06:58;;;;;;;;;;;;;;;18.30;27.67;101011.02;102827;1314;61247;-81
2023/03/14 08:09:24;;;;;;;;;;;;;;;18.32;27.80;101008.20;102871;1314;61343;-81
2023/03/14 08:11:51;;;;;;;;;;;;;;;18.35;27.82;101007.35;102790;1312;61397;-82
2023/03/14 08:14:16;;;;;;;;;;;;;;;18.37;27.80;101005.63;102877;1310;61337;-82
2023/03/14 08:16:42;;;;;;;;;;;;;;;18.38;27.79;101003.02;102693;1308;61308;-80
2023/03/14 08:19:08;;;;;;;;;;;;;;;18.41;27.88;101001.23;102706;1311;61314;-80
2023/03/14 08:21:34;;;;;;;;;;;;;;;18.43;27.96;101001.85;102888;1308;61280;-80
2023/03/14 08:24:00;;;;;;;;;;;;;;;18.46;27.79;100995.86;102888;1309;64070;-79
2023/03/14 08:26:26;;;;;;;;;;;;;;;18.47;27.86;100995.59;102713;1311;64623;-80
2023/03/14 08:28:51;;;;;;;;;;;;;;;18.48;27.84;100991.98;102602;1309;62142;-80
2023/03/14 08:31:17;;;;;;;;;;;;;;;18.49;27.79;100985.67;102841;1308;61306;-80
2023/03/14 08:33:45;;;;;;;;;;;;;;;18.50;27.68;100984.55;102858;1311;61362;-81
2023/03/14 08:36:10;;;;;;;;;;;;;;;18.51;27.64;100982.36;102927;1309;61288;-80
2023/03/14 08:38:37;;;;;;;;;;;;;;;18.52;27.67;100977.10;102961;1314;61396;-80
2023/03/14 08:41:04;;;;;;;;;;;;;;;18.54;27.53;100975.42;102905;1308;61436;-80
2023/03/14 08:43:30;;;;;;;;;;;;;;;18.53;27.45;100970.67;102721;1308;61300;-81
2023/03/14 08:46:01;;;;;;;;;;;;;;;18.45;27.34;100967.39;102766;1309;61454;-81
2023/03/14 08:48:26;;;;;;;;;;;;;;;18.42;27.21;100964.84;102781;1311;72520;-80
2023/03/14 08:50:52;;;;;;;;;;;;;;;18.46;27.16;100960.91;103031;1309;61425;-81
2023/03/14 08:53:18;;;;;;;;;;;;;;;18.48;27.06;100951.35;103034;1312;61868;-81
2023/03/14 08:55:43;;;;;;;;;;;;;;;18.49;26.99;100948.81;103137;1308;61338;-80
2023/03/14 08:58:09;;;;;;;;;;;;;;;18.50;27.04;100942.47;102967;1314;61503;-82
2023/03/14 09:00:35;;;;;;;;;;;;;;;18.53;26.93;100937.70;102915;1309;61288;-81
2023/03/14 09:03:01;;;;;;;;;;;;;;;18.55;27.01;100928.45;102687;1311;75614;-81
2023/03/14 09:05:26;;;;;;;;;;;;;;;18.52;26.77;100922.76;103514;1312;61445;-81
2023/03/14 09:07:52;;;;;;;;;;;;;;;18.48;27.01;100920.67;103361;1314;61278;-82
2023/03/14 09:10:18;;;;;;;;;;;;;;;18.47;27.24;100910.22;102826;1309;61438;-80
2023/03/14 09:12:44;;;;;;;;;;;;;;;18.50;27.42;100909.19;102754;1308;63615;-81
2023/03/14 09:15:38;;;;;;;;;;;;;;;18.52;27.41;100904.42;102798;1308;61954;-81
2023/03/14 09:18:04;;;;;;;;;;;;;;;18.48;27.21;100898.81;102387;1314;61456;-81
2023/03/14 09:20:30;;;;;;;;;;;;;;;18.47;27.18;100889.18;102481;1315;61531;-81
2023/03/14 09:22:55;;;;;;;;;;;;;;;18.47;27.05;100882.26;103124;1317;59678;-80
2023/03/14 09:25:21;;;;;;;;;;;;;;;18.46;26.89;100880.91;102486;1315;61329;-80
2023/03/14 09:27:47;;;;;;;;;;;;;;;18.46;26.76;100878.59;102413;1318;61311;-80
2023/03/14 09:30:13;;;;;;;;;;;;;;;18.44;26.68;100880.81;102252;1318;63197;-80
2023/03/14 09:32:39;;;;;;;;;;;;;;;18.41;26.52;100883.34;102407;1315;61310;-81
2023/03/14 09:35:06;;;;;;;;;;;;;;;18.42;26.46;100879.36;102297;1317;61516;-81
2023/03/14 09:37:32;;;;;;;;;;;;;;;18.43;26.39;100875.69;102472;1314;61346;-80
2023/03/14 09:39:58;;;;;;;;;;;;;;;18.45;26.30;100871.12;102777;1315;61313;-80
2023/03/14 09:42:25;;;;;;;;;;;;;;;18.47;26.20;100870.86;102546;1315;61487;-80
2023/03/14 09:44:59;;;;;;;;;;;;;;;18.49;26.08;100867.91;102449;1318;61295;-80
2023/03/14 09:47:25;;;;;;;;;;;;;;;18.48;26.00;100864.01;102426;1315;61544;-80
2023/03/14 09:49:52;;;;;;;;;;;;;;;18.47;26.04;100857.48;102449;1316;61457;-81
2023/03/14 09:52:20;;;;;;;;;;;;;;;18.48;25.97;100852.77;102178;1315;61253;-82
2023/03/14 09:54:50;;;;;;;;;;;;;;;18.48;25.84;100850.85;102472;1308;73630;-81
2023/03/14 09:57:19;;;;;;;;;;;;;;;18.47;25.84;100848.41;103107;1308;61670;-80
2023/03/14 09:59:44;;;;;;;;;;;;;;;18.48;25.77;100846.19;102836;1308;61280;-80
2023/03/14 10:02:20;;;;;;;;;;;;;;;18.38;25.44;100838.94;102679;1313;61442;-80
2023/03/14 10:04:46;;;;;;;;;;;;;;;18.14;25.10;100836.94;102704;1308;74717;-80
2023/03/14 10:07:16;;;;;;;;;;;;;;;17.98;25.15;100830.58;102858;1308;62139;-80
2023/03/14 10:09:52;;;;;;;;;;;;;;;17.98;25.23;100830.20;103005;1311;61428;-80
2023/03/14 10:12:32;;;;;;;;;;;;;;;18.03;25.30;100827.60;102882;1311;72508;-81
2023/03/14 10:14:59;;;;;;;;;;;;;;;18.03;25.19;100823.52;102903;1308;74513;-80
2023/03/14 10:17:24;;;;;;;;;;;;;;;17.94;25.10;100815.65;102853;1308;61657;-81
2023/03/14 10:19:53;;;;;;;;;;;;;;;18.01;25.35;100811.17;102777;1308;61387;-81
2023/03/14 10:22:19;;;;;;;;;;;;;;;18.09;25.54;100803.42;102964;1309;73937;-81
2023/03/14 10:24:46;;;;;;;;;;;;;;;18.15;25.53;100802.51;103200;1312;61307;-81
2023/03/14 10:27:22;;;;;;;;;;;;;;;18.21;25.65;100798.98;102881;1308;61377;-81
2023/03/14 10:29:52;;;;;;;;;;;;;;;18.27;25.59;100795.75;102946;1309;61209;-81
2023/03/14 10:32:22;;;;;;;;;;;;;;;18.26;25.33;100786.55;103196;1308;73763;-81
2023/03/14 10:35:03;;;;;;;;;;;;;;;18.25;25.32;100781.61;103154;1311;74379;-81
2023/03/14 10:37:30;;;;;;;;;;;;;;;18.29;25.27;100773.20;102985;1308;61213;-81
2023/03/14 10:39:58;;;;;;;;;;;;;;;18.30;25.16;100769.03;103041;1308;61595;-81
2023/03/14 10:42:34;;;;;;;;;;;;;;;18.30;25.16;100765.50;103006;1310;72614;-81
2023/03/14 10:45:02;;;;;;;;;;;;;;;18.33;25.10;100758.01;102890;1309;74783;-81
2023/03/14 10:47:29;;;;;;;;;;;;;;;18.37;25.26;100750.11;103689;1308;61419;-81
2023/03/14 10:49:55;;;;;;;;;;;;;;;18.41;25.34;100745.73;102910;1308;61363;-81
2023/03/14 10:52:23;;;;;;;;;;;;;;;18.43;25.21;100734.43;103255;1309;61298;-81
2023/03/14 10:55:08;;;;;;;;;;;;;;;18.42;25.19;100729.80;103130;1311;74702;-80
2023/03/14 10:57:38;;;;;;;;;;;;;;;18.43;24.99;100722.09;103097;1308;61185;-82
2023/03/14 11:00:08;;;;;;;;;;;;;;;18.38;24.73;100720.96;103033;1308;61368;-82
2023/03/14 11:02:57;;;;;;;;;;;;;;;18.21;24.48;100711.52;102822;1309;72435;-80
2023/03/14 11:05:35;;;;;;;;;;;;;;;18.05;24.28;100706.20;102121;1315;76053;-80
2023/03/14 11:08:02;;;;;;;;;;;;;;;17.92;24.21;100701.63;102315;1315;61526;-80
2023/03/14 11:10:45;;;;;;;;;;;;;;;17.89;24.16;100693.40;101991;1317;61260;-81
2023/03/14 11:13:15;;;;;;;;;;;;;;;17.88;24.15;100689.37;102101;1317;72629;-80
2023/03/14 11:15:45;;;;;;;;;;;;;;;17.79;23.87;100679.98;102129;1316;74518;-81
2023/03/14 11:18:22;;;;;;;;;;;;;;;17.57;23.48;100679.09;102375;1314;61508;-81
2023/03/14 11:21:08;;;;;;;;;;;;;;;17.57;23.62;100672.48;102403;1315;61440;-81
2023/03/14 11:23:43;;;;;;;;;;;;;;;17.65;23.79;100663.36;102427;1315;72896;-81
2023/03/14 11:26:22;;;;;;;;;;;;;;;17.75;24.19;100657.38;102552;1314;75624;-80
2023/03/14 11:28:49;;;;;;;;;;;;;;;17.85;24.18;100646.84;102476;1314;61269;-81
2023/03/14 11:31:16;;;;;;;;;;;;;;;17.91;24.22;100638.64;102320;1317;61400;-80
2023/03/14 11:33:45;;;;;;;;;;;;;;;17.93;23.99;100630.73;102416;1316;72855;-80
2023/03/14 11:36:11;;;;;;;;;;;;;;;17.96;23.99;100624.31;102574;1315;74619;-81
2023/03/14 11:38:41;;;;;;;;;;;;;;;18.04;23.94;100616.00;102827;1315;61323;-79
2023/03/14 11:41:12;;;;;;;;;;;;;;;18.08;24.04;100606.81;102231;1317;61189;-82
2023/03/14 11:43:42;;;;;;;;;;;;;;;18.13;24.01;100604.91;102800;1308;72752;-81
2023/03/14 11:46:20;;;;;;;;;;;;;;;18.03;23.60;100598.94;103169;1309;75444;-80
2023/03/14 11:48:49;;;;;;;;;;;;;;;17.92;23.55;100591.22;103048;1308;61455;-81
2023/03/14 11:51:25;;;;;;;;;;;;;;;17.93;23.56;100582.64;103133;1308;61240;-82
2023/03/14 11:53:54;;;;;;;;;;;;;;;17.93;23.40;100578.91;103140;1310;74082;-81
2023/03/14 11:56:32;;;;;;;;;;;;;;;17.98;23.45;100570.96;103153;1309;74713;-81
2023/03/14 11:58:58;;;;;;;;;;;;;;;18.03;23.63;100561.02;102950;1308;61522;-81
2023/03/14 12:01:27;;;;;;;;;;;;;;;18.08;23.58;100556.96;102621;1314;61289;-81
2023/03/14 12:03:56;;;;;;;;;;;;;;;18.05;23.31;100550.89;102873;1308;72543;-81
2023/03/14 12:06:22;;;;;;;;;;;;;;;18.02;23.32;100548.23;104130;1309;75730;-81
2023/03/14 12:08:48;;;;;;;;;;;;;;;17.93;23.07;100543.10;104220;1308;59510;-81
2023/03/14 12:11:15;;;;;;;;;;;;;;;17.92;23.24;100532.69;104382;1308;60042;-81
2023/03/14 12:13:41;;;;;;;;;;;;;;;17.97;23.27;100531.33;104275;1308;73428;-81
2023/03/14 12:16:07;;;;;;;;;;;;;;;18.04;23.37;100529.09;104368;1308;59215;-81
2023/03/14 12:18:34;;;;;;;;;;;;;;;18.10;23.44;100521.40;104378;1308;59639;-81
2023/03/14 12:21:00;;;;;;;;;;;;;;;18.17;23.42;100520.63;104536;1308;59508;-81
2023/03/14 12:23:26;;;;;;;;;;;;;;;18.14;23.24;100517.61;104386;1308;59210;-82
2023/03/14 12:26:08;;;;;;;;;;;;;;;18.17;23.31;100509.40;104401;1308;59802;-81
2023/03/14 12:28:34;;;;;;;;;;;;;;;18.23;23.53;100504.41;104458;1308;61182;-81
2023/03/14 12:31:29;;;;;;;;;;;;;;;18.29;23.25;100501.73;104471;1308;59344;-81
2023/03/14 12:34:03;;;;;;;;;;;;;;;18.31;23.29;100501.77;103533;1309;72634;-81
2023/03/14 12:36:53;;;;;;;;;;;;;;;18.34;23.32;100497.46;103202;1308;75417;-81